createdAt,value
2023-04-04T00:03:01.506Z,2.50
2023-04-04T00:08:04.396Z,3.43
2023-04-04T00:13:09.168Z,2.07
2023-04-04T00:18:13.409Z,2.50
2023-04-04T00:23:15.222Z,2.57
2023-04-04T00:28:19.472Z,2.53
2023-04-04T00:33:21.684Z,2.43
2023-04-04T00:38:25.796Z,2.30
2023-04-04T00:43:27.467Z,2.20
2023-04-04T00:48:29.732Z,2.07
2023-04-04T00:53:32.235Z,2.30
2023-04-04T00:58:34.111Z,2.13
2023-04-04T01:03:35.846Z,2.10
2023-04-04T01:08:39.757Z,2.03
2023-04-04T01:13:44.385Z,2.40
2023-04-04T01:18:54.075Z,2.30
2023-04-04T01:24:04.411Z,2.13
2023-04-04T01:29:27.737Z,2.20
2023-04-04T01:35:08.406Z,2.30
2023-04-04T01:40:37.482Z,2.20
2023-04-04T01:45:40.918Z,2.30
2023-04-04T01:50:50.052Z,2.30
2023-04-04T01:55:52.172Z,2.60
2023-04-04T02:00:55.278Z,2.50
2023-04-04T02:06:00.161Z,2.10
2023-04-04T02:11:04.720Z,2.20
2023-04-04T02:16:07.240Z,2.37
2023-04-04T02:21:09.063Z,2.50
2023-04-04T02:26:13.325Z,2.30
2023-04-04T02:31:15.276Z,2.53
2023-04-04T02:36:22.174Z,2.53
2023-04-04T02:41:26.734Z,2.33
2023-04-04T02:46:31.010Z,2.50
2023-04-04T02:51:38.226Z,2.30
2023-04-04T02:56:40.171Z,2.70
2023-04-04T03:01:44.729Z,2.90
2023-04-04T03:06:48.320Z,2.93
2023-04-04T03:11:55.342Z,2.77
2023-04-04T03:16:57.534Z,2.57
2023-04-04T03:22:04.577Z,2.80
2023-04-04T03:27:09.238Z,2.97
2023-04-04T03:32:11.169Z,2.63
2023-04-04T03:37:15.575Z,2.90
2023-04-04T03:42:17.311Z,3.50
2023-04-04T03:47:19.609Z,3.27
2023-04-04T03:52:21.458Z,3.50
2023-04-04T03:57:23.214Z,3.43
2023-04-04T04:02:24.996Z,3.17
2023-04-04T04:07:28.961Z,3.10
2023-04-04T04:12:30.745Z,4.30
2023-04-04T04:17:32.745Z,4.07
2023-04-04T04:22:40.542Z,3.53
2023-04-04T04:27:47.080Z,3.93
2023-04-04T04:32:51.719Z,3.60
2023-04-04T04:37:57.325Z,4.10
2023-04-04T04:42:59.150Z,4.50
2023-04-04T04:48:01.243Z,4.23
2023-04-04T04:53:08.436Z,4.30
2023-04-04T04:58:11.212Z,4.97
2023-04-04T05:03:17.193Z,4.30
2023-04-04T05:08:23.526Z,5.23
2023-04-04T05:13:37.643Z,4.33
2023-04-04T05:18:40.383Z,4.73
2023-04-04T05:23:48.649Z,4.80
2023-04-04T05:28:54.543Z,4.80
2023-04-04T05:34:08.203Z,4.43
2023-04-04T05:39:10.449Z,5.43
2023-04-04T05:44:20.028Z,5.00
2023-04-04T05:49:22.152Z,5.07
2023-04-04T05:54:35.752Z,5.13
2023-04-04T05:59:42.846Z,5.53
2023-04-04T06:04:51.266Z,5.47
2023-04-04T06:10:03.259Z,5.80
2023-04-04T06:15:08.592Z,5.30
2023-04-04T06:20:11.857Z,6.30
2023-04-04T06:25:14.674Z,6.47
2023-04-04T06:30:18.234Z,5.80
2023-04-04T06:35:24.160Z,5.93
2023-04-04T06:40:32.939Z,4.80
2023-04-04T06:45:35.914Z,4.33
2023-04-04T06:50:38.084Z,4.43
2023-04-04T06:55:43.700Z,4.13
2023-04-04T07:00:47.980Z,3.80
2023-04-04T07:05:52.882Z,3.43
2023-04-04T07:10:54.732Z,3.37
2023-04-04T07:15:58.749Z,3.77
2023-04-04T07:21:02.863Z,3.13
2023-04-04T07:26:06.866Z,3.03
2023-04-04T07:31:08.749Z,2.97
2023-04-04T07:36:11.037Z,2.43
2023-04-04T07:41:15.797Z,2.55
2023-04-04T07:46:18.190Z,2.27
2023-04-04T07:51:28.248Z,2.33
2023-04-04T07:56:32.271Z,2.53
2023-04-04T08:01:34.025Z,2.37
2023-04-04T08:06:36.928Z,2.77
2023-04-04T08:11:41.561Z,2.20
2023-04-04T08:16:43.621Z,2.23
2023-04-04T08:21:47.632Z,2.60
2023-04-04T08:26:58.276Z,3.00
2023-04-04T08:32:09.607Z,2.77
2023-04-04T08:37:11.474Z,2.80
2023-04-04T08:42:20.806Z,3.10
2023-04-04T08:47:24.702Z,2.10
2023-04-04T08:52:31.416Z,2.50
2023-04-04T08:57:33.557Z,2.70
2023-04-04T09:02:58.075Z,2.40
2023-04-04T09:08:07.271Z,2.40
2023-04-04T09:13:16.281Z,2.70
2023-04-04T09:18:19.023Z,2.80
2023-04-04T09:23:24.137Z,2.17
2023-04-04T09:28:26.408Z,2.40
2023-04-04T09:33:34.141Z,2.07
2023-04-04T09:38:37.677Z,2.70
2023-04-04T09:43:39.917Z,2.27
2023-04-04T09:48:51.561Z,2.20
2023-04-04T09:53:53.297Z,2.50
2023-04-04T09:59:03.707Z,2.90
2023-04-04T10:04:11.935Z,2.33
2023-04-04T10:09:15.583Z,2.47
2023-04-04T10:14:17.370Z,2.70
2023-04-04T10:19:21.412Z,2.53
2023-04-04T10:24:23.202Z,2.77
2023-04-04T10:29:27.972Z,2.97
2023-04-04T10:34:43.398Z,2.70
2023-04-04T10:39:52.097Z,3.00
2023-04-04T10:44:56.324Z,3.33
2023-04-04T10:49:58.220Z,2.63
2023-04-04T10:55:06.484Z,3.17
2023-04-04T11:00:13.069Z,3.60
2023-04-04T11:05:41.039Z,4.00
2023-04-04T11:10:50.482Z,2.90
2023-04-04T11:16:01.016Z,3.47
2023-04-04T11:21:05.136Z,2.57
2023-04-04T11:26:07.530Z,2.83
2023-04-04T11:31:18.116Z,2.07
2023-04-04T11:36:35.252Z,2.07
2023-04-04T11:41:59.836Z,1.80
2023-04-04T11:47:11.805Z,1.50
2023-04-04T11:52:19.220Z,2.13
2023-04-04T11:57:21.632Z,2.23
2023-04-04T12:02:32.528Z,2.13
2023-04-04T12:07:35.320Z,2.10
2023-04-04T12:12:44.651Z,1.70
2023-04-04T12:17:46.385Z,1.75
2023-04-04T12:22:51.773Z,2.00
2023-04-04T12:27:57.483Z,2.08
2023-04-04T12:32:59.309Z,2.10
2023-04-04T12:38:07.315Z,2.40
2023-04-04T12:43:09.656Z,2.03
2023-04-04T12:48:15.654Z,1.98
2023-04-04T12:53:28.945Z,2.10
2023-04-04T12:58:32.034Z,2.47
2023-04-04T13:03:35.032Z,2.00
2023-04-04T13:08:36.928Z,1.60
2023-04-04T13:13:40.790Z,2.33
2023-04-04T13:18:44.254Z,2.20
2023-04-04T13:23:48.454Z,2.30
2023-04-04T13:28:52.460Z,2.28
2023-04-04T13:33:54.206Z,1.77
2023-04-04T13:38:58.348Z,1.90
2023-04-04T13:44:00.402Z,2.10
2023-04-04T13:49:02.365Z,1.80
2023-04-04T13:54:08.890Z,1.80
2023-04-04T13:59:15.575Z,2.22
2023-04-04T14:04:23.933Z,2.67
2023-04-04T14:09:29.404Z,2.47
2023-04-04T14:14:35.558Z,2.10
2023-04-04T14:19:41.623Z,2.30
2023-04-04T14:24:45.603Z,1.88
2023-04-04T14:29:49.534Z,2.10
2023-04-04T14:34:51.388Z,2.30
2023-04-04T14:39:56.271Z,2.65
2023-04-04T14:45:02.357Z,6.88
2023-04-04T14:50:04.364Z,2.88
2023-04-04T14:55:10.055Z,2.78
2023-04-04T15:00:20.580Z,2.67
2023-04-04T15:05:24.510Z,2.70
2023-04-04T15:10:28.262Z,2.80
2023-04-04T15:15:32.598Z,2.80
2023-04-04T15:20:40.229Z,3.42
2023-04-04T15:25:42.186Z,3.38
2023-04-04T15:30:44.067Z,3.25
2023-04-04T15:35:50.299Z,2.80
2023-04-04T15:40:54.325Z,3.33
2023-04-04T15:45:56.367Z,2.80
2023-04-04T15:51:02.304Z,3.08
2023-04-04T15:56:08.921Z,2.92
2023-04-04T16:01:13.209Z,2.90
2023-04-04T16:06:19.720Z,2.95
2023-04-04T16:11:21.866Z,3.10
2023-04-04T16:16:25.994Z,2.63
2023-04-04T16:21:27.904Z,3.20
2023-04-04T16:26:29.686Z,2.97
2023-04-04T16:31:32.149Z,2.70
2023-04-04T16:36:36.422Z,2.72
2023-04-04T16:41:40.977Z,2.90
2023-04-04T16:46:47.196Z,4.50
2023-04-04T16:51:49.517Z,2.90
2023-04-04T16:56:53.311Z,2.90
2023-04-04T17:01:54.985Z,2.80
2023-04-04T17:06:59.098Z,3.10
2023-04-04T17:12:01.407Z,2.97
2023-04-04T17:17:07.889Z,3.00
2023-04-04T17:22:09.641Z,3.90
2023-04-04T17:27:16.145Z,3.20
2023-04-04T17:32:17.852Z,3.13
2023-04-04T17:37:19.664Z,2.20
2023-04-04T17:42:21.456Z,3.03
2023-04-04T17:47:26.123Z,2.97
2023-04-04T17:52:30.344Z,2.57
2023-04-04T17:57:32.350Z,2.92
2023-04-04T18:02:34.242Z,2.70
2023-04-04T18:07:37.172Z,2.47
2023-04-04T18:12:44.527Z,2.17
2023-04-04T18:17:53.648Z,2.70
2023-04-04T18:22:58.520Z,2.40
2023-04-04T18:28:02.065Z,2.83
2023-04-04T18:33:08.530Z,2.70
2023-04-04T18:38:12.716Z,4.90
2023-04-04T18:43:17.047Z,2.43
2023-04-04T18:48:18.837Z,2.77
2023-04-04T18:53:29.203Z,2.70
2023-04-04T18:58:35.202Z,2.50
2023-04-04T19:03:42.867Z,2.80
2023-04-04T19:08:44.732Z,3.00
2023-04-04T19:13:48.796Z,2.00
2023-04-04T19:18:52.646Z,1.83
2023-04-04T19:23:57.723Z,2.20
2023-04-04T19:28:59.431Z,1.63
2023-04-04T19:34:03.457Z,2.10
2023-04-04T19:39:08.147Z,1.90
2023-04-04T19:44:23.007Z,1.90
2023-04-04T19:49:28.005Z,2.30
2023-04-04T19:54:39.030Z,2.20
2023-04-04T20:00:13.399Z,2.30
2023-04-04T20:05:29.649Z,2.33
2023-04-04T20:10:42.475Z,2.70
2023-04-04T20:15:47.695Z,2.50
2023-04-04T20:21:10.908Z,3.93
2023-04-04T20:26:37.866Z,3.10
2023-04-04T20:32:15.647Z,2.73
2023-04-04T20:37:21.746Z,3.10
2023-04-04T20:42:26.309Z,2.70
2023-04-04T20:47:51.634Z,2.70
2023-04-04T20:52:58.524Z,2.83
2023-04-04T20:58:25.900Z,2.77
2023-04-04T21:03:35.544Z,2.83
2023-04-04T21:08:50.076Z,2.77
2023-04-04T21:13:54.610Z,3.20
2023-04-04T21:19:00.654Z,2.83
2023-04-04T21:24:02.947Z,3.20
2023-04-04T21:29:23.680Z,3.27
2023-04-04T21:34:26.924Z,2.70
2023-04-04T21:39:30.003Z,3.10
2023-04-04T21:44:34.584Z,2.53
2023-04-04T21:49:38.535Z,3.07
2023-04-04T21:54:45.451Z,3.10
2023-04-04T21:59:52.135Z,3.20
2023-04-04T22:04:59.704Z,3.30
2023-04-04T22:10:04.291Z,3.60
2023-04-04T22:15:08.940Z,2.97
2023-04-04T22:20:12.809Z,2.97
2023-04-04T22:25:21.590Z,2.93
2023-04-04T22:30:23.378Z,3.03
2023-04-04T22:35:28.076Z,3.13
2023-04-04T22:40:33.800Z,3.17
2023-04-04T22:45:37.786Z,3.40
2023-04-04T22:50:41.832Z,3.80
2023-04-04T22:55:45.916Z,3.87
2023-04-04T23:00:48.007Z,3.50
2023-04-04T23:05:51.891Z,3.43
2023-04-04T23:10:56.239Z,3.53
2023-04-04T23:15:58.038Z,4.10
2023-04-04T23:21:01.974Z,3.43
2023-04-04T23:26:06.418Z,4.17
2023-04-04T23:31:10.716Z,3.70
2023-04-04T23:36:12.447Z,4.10
2023-04-04T23:41:14.447Z,3.90
2023-04-04T23:46:16.208Z,4.03
2023-04-04T23:51:17.946Z,4.07
2023-04-04T23:56:19.612Z,3.83
